Observations for Trim Market St
| Time | AQI | Temp °C | Hum % | Pres Pa | CO μg/m³ | H₂S μg/m³ | NO μg/m³ | NO₂ μg/m³ | O₃ μg/m³ | SO₂ μg/m³ | PM1 μg/m³ | PM2.5 μg/m³ | PM10 μg/m³ |
|---|---|---|---|---|---|---|---|---|---|---|---|---|---|
| Friday 10 July 2026 | |||||||||||||
| 02:11 | 1 | 18.7 | 75 | 38,086 | 0 | 0 | 0 | 8.84 | 14.89 | 0 | 3.56 | 5.71 | 8.73 |
| 02:09 | 1 | 18.7 | 74 | 39,385 | 0 | 0 | 0 | 10.57 | 18.34 | 0 | 4.28 | 5.73 | 9.94 |
| 02:08 | 1 | 18.7 | 74 | 39,931 | 0 | 0 | 0 | 11.07 | 17.46 | 0 | 4.28 | 6.21 | 9.33 |
| 02:07 | 1 | 18.7 | 74 | 40,355 | 0 | 0 | 0 | 4.28 | 8.22 | 0 | 3.56 | 5.26 | 8.73 |
| 02:06 | 1 | 18.8 | 74 | 40,537 | 0 | 0 | 0 | 7.35 | 11.51 | 0 | 5.7 | 6.22 | 10.54 |
| 02:05 | 1 | 18.8 | 74 | 40,776 | 0 | 0 | 0 | 5.75 | 7.54 | 0 | 3.56 | 5.26 | 8.13 |
| 01:57 | 1 | 18.9 | 74 | 43,143 | 0 | 0 | 0 | 10.88 | 15.29 | 0 | 2.85 | 5.28 | 9.95 |
| 01:56 | 1 | 18.9 | 74 | 43,520 | 0 | 0 | 0 | 4.08 | 10.22 | 0 | 2.85 | 4.32 | 6.93 |
| 01:55 | 1 | 18.9 | 74 | 43,684 | 0 | 0 | 0 | 5.98 | 8.76 | 0 | 2.85 | 4.32 | 6.93 |
| 01:54 | 1 | 18.9 | 74 | 43,899 | 0 | 0 | 0 | 4.59 | 12.14 | 0 | 3.56 | 6.25 | 9.35 |
| 01:53 | 1 | 19 | 74 | 43,997 | 0 | 0 | 0 | 5.07 | 7 | 0 | 3.56 | 5.29 | 8.14 |
| 01:52 | 1 | 19 | 74 | 44,127 | 0 | 0 | 0 | 5.28 | 12.85 | 0 | 2.85 | 3.85 | 6.32 |
| 01:49 | 1 | 19 | 73 | 44,476 | 0 | 0 | 0 | 4.69 | 12.59 | 0 | 2.14 | 4.34 | 6.92 |
| 01:48 | 1 | 19 | 73 | 44,522 | 0 | 0 | 0 | 5.99 | 13.54 | 0 | 4.28 | 4.82 | 7.53 |
| 01:47 | 1 | 19 | 73 | 44,636 | 0 | 0 | 0 | 5.39 | 7.49 | 0 | 3.56 | 5.3 | 8.14 |
| 01:46 | 1 | 19.1 | 73 | 44,748 | 0 | 0 | 0 | 5.26 | 11.18 | 0 | 3.56 | 4.34 | 6.92 |
| 01:41 | 1 | 19.1 | 73 | 45,291 | 0 | 0 | 0 | 5.99 | 14.45 | 0 | 2.85 | 4.83 | 8.14 |
| 01:40 | 1 | 19.1 | 73 | 45,438 | 0 | 0 | 0 | 5.7 | 9.72 | 0 | 3.56 | 4.35 | 6.92 |
| 01:35 | 1 | 19.2 | 73 | 46,058 | 0 | 0 | 0 | 6.18 | 6.1 | 0 | 3.56 | 4.84 | 7.53 |
| 01:33 | 1 | 19.2 | 73 | 46,446 | 0 | 0 | 0 | 5.49 | 4.91 | 0 | 2.85 | 3.88 | 6.31 |